createdAt,value
2024-01-12T00:01:56.466Z,99931.89
2024-01-12T00:04:59.344Z,99925.09
2024-01-12T00:08:02.273Z,99924.94
2024-01-12T00:11:08.730Z,99934.52
2024-01-12T00:14:12.907Z,99939.46
2024-01-12T00:17:15.908Z,99944.27
2024-01-12T00:20:18.789Z,99944.86
2024-01-12T00:23:21.857Z,99938.97
2024-01-12T00:26:24.759Z,99934.73
2024-01-12T00:29:27.610Z,99935.67
2024-01-12T00:32:30.692Z,99942.31
2024-01-12T00:35:33.811Z,99944.59
2024-01-12T00:38:36.738Z,99944.45
2024-01-12T00:41:39.637Z,99951.80
2024-01-12T00:44:42.493Z,99959.05
2024-01-12T00:47:45.381Z,99951.02
2024-01-12T00:50:48.761Z,99948.09
2024-01-12T00:53:52.330Z,99948.75
2024-01-12T00:56:55.423Z,99947.96
2024-01-12T00:59:58.296Z,99947.02
2024-01-12T01:03:03.565Z,99950.86
2024-01-12T01:06:06.682Z,99953.86
2024-01-12T01:09:09.909Z,99955.84
2024-01-12T01:12:13.024Z,99958.15
2024-01-12T01:15:16.184Z,99958.66
2024-01-12T01:18:19.450Z,99959.90
2024-01-12T01:21:22.625Z,99959.86
2024-01-12T01:24:30.158Z,99954.95
2024-01-12T01:27:33.136Z,99947.73
2024-01-12T01:30:36.218Z,99946.09
2024-01-12T01:33:39.223Z,99951.13
2024-01-12T01:36:42.096Z,99959.05
2024-01-12T01:39:44.991Z,99962.33
2024-01-12T01:42:49.224Z,99969.52
2024-01-12T01:45:52.132Z,99975.45
2024-01-12T01:48:55.291Z,99975.50
2024-01-12T01:51:59.015Z,99979.23
2024-01-12T01:55:02.117Z,99978.77
2024-01-12T01:58:06.171Z,99981.41
2024-01-12T02:01:09.913Z,99987.65
2024-01-12T02:04:13.118Z,99988.33
2024-01-12T02:07:16.268Z,99991.25
2024-01-12T02:10:19.244Z,99998.70
2024-01-12T02:13:22.757Z,100001.45
2024-01-12T02:16:26.216Z,100007.70
2024-01-12T02:19:29.248Z,100015.58
2024-01-12T02:22:32.124Z,100019.04
2024-01-12T02:25:35.153Z,100018.10
2024-01-12T02:28:38.016Z,100015.52
2024-01-12T02:31:41.219Z,100009.09
2024-01-12T02:34:44.149Z,100010.88
2024-01-12T02:37:47.044Z,100001.67
2024-01-12T02:40:49.879Z,99998.06
2024-01-12T02:43:53.312Z,99995.55
2024-01-12T02:46:56.230Z,99999.92
2024-01-12T02:49:59.104Z,100005.75
2024-01-12T02:53:01.973Z,100011.82
2024-01-12T02:56:05.101Z,100014.98
2024-01-12T02:59:08.086Z,100015.06
2024-01-12T03:02:10.877Z,100016.61
2024-01-12T03:05:13.848Z,100023.05
2024-01-12T03:08:16.872Z,100027.95
2024-01-12T03:11:19.736Z,100025.77
2024-01-12T03:14:23.008Z,100021.66
2024-01-12T03:17:26.435Z,100021.98
2024-01-12T03:20:29.543Z,100017.97
2024-01-12T03:23:32.558Z,100019.44
2024-01-12T03:26:38.835Z,100019.05
2024-01-12T03:29:41.976Z,100024.31
2024-01-12T03:32:45.014Z,100022.72
2024-01-12T03:35:48.310Z,100024.23
2024-01-12T03:38:54.346Z,100023.55
2024-01-12T03:41:57.354Z,100023.20
2024-01-12T03:45:00.492Z,100024.54
2024-01-12T03:48:04.244Z,100026.42
2024-01-12T03:51:07.491Z,100026.66
2024-01-12T03:54:11.329Z,100032.26
2024-01-12T03:57:14.254Z,100035.28
2024-01-12T04:00:17.380Z,100044.50
2024-01-12T04:03:20.281Z,100040.86
2024-01-12T04:06:23.429Z,100036.80
2024-01-12T04:09:26.274Z,100032.98
2024-01-12T04:12:29.136Z,100032.80
2024-01-12T04:15:32.072Z,100033.53
2024-01-12T04:18:35.245Z,100031.23
2024-01-12T04:21:38.274Z,100029.69
2024-01-12T04:24:41.180Z,100035.68
2024-01-12T04:27:43.965Z,100037.63
2024-01-12T04:30:46.870Z,100039.93
2024-01-12T04:33:49.841Z,100041.12
2024-01-12T04:36:55.045Z,100040.45
2024-01-12T04:39:57.911Z,100046.98
2024-01-12T04:43:00.807Z,100049.14
2024-01-12T04:46:03.746Z,100055.96
2024-01-12T04:49:06.699Z,100060.95
2024-01-12T04:52:09.579Z,100055.09
2024-01-12T04:55:12.486Z,100059.27
2024-01-12T04:58:15.408Z,100066.02
2024-01-12T05:01:18.396Z,100068.23
2024-01-12T05:04:21.313Z,100068.98
2024-01-12T05:07:24.242Z,100069.16
2024-01-12T05:10:27.059Z,100067.84
2024-01-12T05:13:30.755Z,100066.98
2024-01-12T05:16:33.664Z,100065.67
2024-01-12T05:19:36.511Z,100066.63
2024-01-12T05:22:39.370Z,100068.81
2024-01-12T05:25:42.551Z,100070.02
2024-01-12T05:28:45.457Z,100070.80
2024-01-12T05:31:48.281Z,100069.27
2024-01-12T05:34:51.320Z,100075.04
2024-01-12T05:37:56.111Z,100072.92
2024-01-12T05:40:58.971Z,100083.55
2024-01-12T05:44:01.781Z,100081.17
2024-01-12T05:47:04.961Z,100084.73
2024-01-12T05:50:08.141Z,100081.06
2024-01-12T05:53:11.035Z,100082.59
2024-01-12T05:56:14.011Z,100091.19
2024-01-12T05:59:16.927Z,100092.27
2024-01-12T06:02:19.822Z,100092.08
2024-01-12T06:05:22.785Z,100098.16
2024-01-12T06:08:25.763Z,100098.71
2024-01-12T06:11:28.593Z,100102.80
2024-01-12T06:14:31.545Z,100106.45
2024-01-12T06:17:34.486Z,100107.11
2024-01-12T06:20:37.470Z,100100.73
2024-01-12T06:23:40.405Z,100101.16
2024-01-12T06:26:43.951Z,100102.52
2024-01-12T06:29:47.151Z,100106.82
2024-01-12T06:32:50.149Z,100107.36
2024-01-12T06:35:53.112Z,100109.02
2024-01-12T06:38:56.766Z,100110.59
2024-01-12T06:42:00.430Z,100111.15
2024-01-12T06:45:07.583Z,100105.38
2024-01-12T06:48:11.383Z,100100.19
2024-01-12T06:51:22.339Z,100092.33
2024-01-12T06:54:25.215Z,100096.35
2024-01-12T06:57:28.500Z,100089.48
2024-01-12T07:00:31.327Z,100085.38
2024-01-12T07:03:34.250Z,100083.03
2024-01-12T07:06:37.342Z,100080.71
2024-01-12T07:09:41.060Z,100074.83
2024-01-12T07:12:44.067Z,100075.23
2024-01-12T07:15:46.931Z,100075.69
2024-01-12T07:18:49.989Z,100076.54
2024-01-12T07:21:52.915Z,100076.39
2024-01-12T07:24:55.788Z,100083.52
2024-01-12T07:27:58.639Z,100080.70
2024-01-12T07:31:01.609Z,100080.25
2024-01-12T07:34:05.545Z,100076.81
2024-01-12T07:37:09.098Z,100076.65
2024-01-12T07:40:13.658Z,100078.84
2024-01-12T07:43:16.689Z,100072.84
2024-01-12T07:46:19.582Z,100073.53
2024-01-12T07:49:22.542Z,100067.21
2024-01-12T07:52:25.367Z,100075.63
2024-01-12T07:55:28.627Z,100074.38
2024-01-12T07:58:33.195Z,100081.55
2024-01-12T08:01:36.420Z,100087.45
2024-01-12T08:04:39.588Z,100092.27
2024-01-12T08:07:42.580Z,100085.88
2024-01-12T08:10:47.927Z,100082.41
2024-01-12T08:13:50.876Z,100074.27
2024-01-12T08:16:54.907Z,100081.97
2024-01-12T08:19:57.733Z,100088.29
2024-01-12T08:23:00.567Z,100089.67
2024-01-12T08:26:03.763Z,100089.68
2024-01-12T08:29:06.670Z,100085.11
2024-01-12T08:32:09.525Z,100082.68
2024-01-12T08:35:12.565Z,100083.73
2024-01-12T08:38:15.411Z,100084.73
2024-01-12T08:41:18.478Z,100088.41
2024-01-12T08:44:21.557Z,100090.47
2024-01-12T08:47:24.493Z,100091.02
2024-01-12T08:50:27.400Z,100091.02
2024-01-12T08:53:30.419Z,100090.58
2024-01-12T08:56:33.273Z,100081.70
2024-01-12T08:59:36.193Z,100073.27
2024-01-12T09:02:39.221Z,100068.70
2024-01-12T09:05:42.629Z,100063.40
2024-01-12T09:08:46.361Z,100060.32
2024-01-12T09:11:49.508Z,100062.55
2024-01-12T09:14:53.451Z,100065.56
2024-01-12T09:17:56.516Z,100067.15
2024-01-12T09:20:59.877Z,100069.14
2024-01-12T09:24:03.059Z,100072.89
2024-01-12T09:27:06.742Z,100073.73
2024-01-12T09:30:09.984Z,100069.06
2024-01-12T09:33:13.411Z,100065.80
2024-01-12T09:36:16.419Z,100060.54
2024-01-12T09:39:19.279Z,100051.75
2024-01-12T09:42:25.027Z,100048.98
2024-01-12T09:45:28.077Z,100043.80
2024-01-12T09:48:31.743Z,100043.91
2024-01-12T09:51:34.800Z,100039.04
2024-01-12T09:54:38.077Z,100038.50
2024-01-12T09:57:41.168Z,100034.56
2024-01-12T10:00:46.365Z,100031.95
2024-01-12T10:03:50.719Z,100036.13
2024-01-12T10:06:54.572Z,100033.56
2024-01-12T10:09:57.672Z,100031.13
2024-01-12T10:13:02.926Z,100029.76
2024-01-12T10:16:08.485Z,100026.92
2024-01-12T10:19:11.688Z,100029.70
2024-01-12T10:22:14.678Z,100024.27
2024-01-12T10:25:17.671Z,100017.81
2024-01-12T10:28:21.097Z,100016.82
2024-01-12T10:31:24.061Z,100007.63
2024-01-12T10:34:34.643Z,100001.17
2024-01-12T10:37:39.375Z,99992.36
2024-01-12T10:40:44.493Z,99994.95
2024-01-12T10:43:54.830Z,99993.67
2024-01-12T10:47:05.343Z,99992.52
2024-01-12T10:50:11.821Z,99988.98
2024-01-12T10:53:38.612Z,99983.74
2024-01-12T10:56:43.608Z,99978.25
2024-01-12T10:59:47.410Z,99969.02
2024-01-12T11:02:51.032Z,99957.20
2024-01-12T11:05:56.499Z,99954.88
2024-01-12T11:09:01.204Z,99951.33
2024-01-12T11:12:13.559Z,99942.73
2024-01-12T11:15:16.613Z,99945.68
2024-01-12T11:18:21.159Z,99941.25
2024-01-12T11:21:26.499Z,99930.91
2024-01-12T11:24:30.458Z,99921.89
2024-01-12T11:27:34.472Z,99916.27
2024-01-12T11:30:41.539Z,99904.70
2024-01-12T11:33:46.854Z,99886.44
2024-01-12T11:37:01.981Z,99876.39
2024-01-12T11:40:12.299Z,99872.77
2024-01-12T11:43:18.966Z,99858.34
2024-01-12T11:46:24.740Z,99858.30
2024-01-12T11:49:27.781Z,99849.64
2024-01-12T11:52:32.140Z,99847.21
2024-01-12T11:55:37.324Z,99849.40
2024-01-12T11:58:40.182Z,99840.94
2024-01-12T12:01:44.218Z,99836.89
2024-01-12T12:04:47.880Z,99827.34
2024-01-12T12:07:50.729Z,99828.79
2024-01-12T12:10:53.832Z,99835.10
2024-01-12T12:13:58.146Z,99829.65
2024-01-12T12:17:01.142Z,99829.20
2024-01-12T12:20:06.633Z,99818.29
2024-01-12T12:23:09.562Z,99816.19
2024-01-12T12:26:12.560Z,99811.29
2024-01-12T12:29:19.989Z,99808.29
2024-01-12T12:32:23.093Z,99811.70
2024-01-12T12:35:26.165Z,99807.73
2024-01-12T12:38:29.147Z,99804.42
2024-01-12T12:41:32.780Z,99807.16
2024-01-12T12:44:36.501Z,99801.81
2024-01-12T12:47:40.912Z,99795.47
2024-01-12T12:50:44.151Z,99793.45
2024-01-12T12:53:47.044Z,99798.85
2024-01-12T12:56:50.503Z,99796.09
2024-01-12T12:59:54.139Z,99791.12
2024-01-12T13:02:58.123Z,99792.70
2024-01-12T13:06:02.240Z,99781.21
2024-01-12T13:09:07.455Z,99762.67
2024-01-12T13:12:10.833Z,99755.41
2024-01-12T13:15:13.890Z,99750.65
2024-01-12T13:18:16.811Z,99753.59
2024-01-12T13:21:20.805Z,99746.85
2024-01-12T13:24:25.286Z,99742.59
2024-01-12T13:27:28.194Z,99740.93
2024-01-12T13:30:31.111Z,99725.98
2024-01-12T13:33:34.381Z,99720.38
2024-01-12T13:36:38.026Z,99714.87
2024-01-12T13:39:40.800Z,99707.20
2024-01-12T13:42:46.098Z,99692.95
2024-01-12T13:46:00.450Z,99681.22
2024-01-12T13:49:13.842Z,99677.89
2024-01-12T13:52:17.135Z,99684.45
2024-01-12T13:55:19.989Z,99677.83
2024-01-12T13:58:23.567Z,99678.33
2024-01-12T14:01:27.317Z,99673.42
2024-01-12T14:04:31.494Z,99666.27
2024-01-12T14:07:34.588Z,99663.13
2024-01-12T14:10:38.942Z,99646.67
2024-01-12T14:13:42.235Z,99636.16
2024-01-12T14:16:45.257Z,99624.39
2024-01-12T14:19:48.234Z,99615.42
2024-01-12T14:22:51.184Z,99607.67
2024-01-12T14:25:54.171Z,99607.23
2024-01-12T14:28:57.367Z,99607.69
2024-01-12T14:32:00.469Z,99608.18
2024-01-12T14:35:03.789Z,99610.96
2024-01-12T14:38:07.001Z,99611.86
2024-01-12T14:41:09.900Z,99602.84
2024-01-12T14:44:12.945Z,99597.97
2024-01-12T14:47:16.018Z,99610.46
2024-01-12T14:50:18.978Z,99603.98
2024-01-12T14:53:21.962Z,99603.97
2024-01-12T14:59:27.800Z,99601.77
2024-01-12T15:02:31.132Z,99596.07
2024-01-12T15:05:35.571Z,99593.55
2024-01-12T15:08:39.940Z,99600.95
2024-01-12T15:11:44.097Z,99594.40
2024-01-12T15:14:47.077Z,99598.05
2024-01-12T15:17:50.307Z,99593.41
2024-01-12T15:20:57.277Z,99594.19
2024-01-12T15:24:00.031Z,99592.59
2024-01-12T15:27:04.280Z,99594.73
2024-01-12T15:30:08.557Z,99584.06
2024-01-12T15:33:12.573Z,99591.34
2024-01-12T15:36:15.505Z,99586.75
2024-01-12T15:39:18.529Z,99578.73
2024-01-12T15:42:25.338Z,99574.11
2024-01-12T15:45:30.421Z,99560.80
2024-01-12T15:48:35.922Z,99563.25
2024-01-12T15:51:42.030Z,99561.13
2024-01-12T15:54:45.029Z,99553.35
2024-01-12T15:57:48.000Z,99545.29
2024-01-12T16:00:52.539Z,99539.16
2024-01-12T16:03:55.787Z,99533.52
2024-01-12T16:06:58.800Z,99533.35
2024-01-12T16:10:02.204Z,99526.77
2024-01-12T16:13:06.484Z,99524.81
2024-01-12T16:16:10.915Z,99522.13
2024-01-12T16:19:15.777Z,99525.00
2024-01-12T16:22:19.103Z,99525.61
2024-01-12T16:25:21.933Z,99527.67
2024-01-12T16:28:25.238Z,99519.56
2024-01-12T16:31:28.123Z,99516.30
2024-01-12T16:34:31.310Z,99517.52
2024-01-12T16:37:35.752Z,99512.83
2024-01-12T16:40:38.632Z,99508.08
2024-01-12T16:43:41.838Z,99503.79
2024-01-12T16:46:44.733Z,99501.60
2024-01-12T16:49:47.659Z,99493.27
2024-01-12T16:52:50.577Z,99500.36
2024-01-12T16:55:53.547Z,99506.69
2024-01-12T16:58:56.877Z,99507.91
2024-01-12T17:01:59.783Z,99499.52
2024-01-12T17:05:02.857Z,99499.91
2024-01-12T17:08:05.910Z,99497.30
2024-01-12T17:11:08.777Z,99487.67
2024-01-12T17:14:11.930Z,99488.77
2024-01-12T17:17:25.606Z,99487.49
2024-01-12T17:20:33.661Z,99482.40
2024-01-12T17:23:36.709Z,99478.31
2024-01-12T17:26:39.875Z,99468.42
2024-01-12T17:29:42.965Z,99465.82
2024-01-12T17:32:46.084Z,99463.88
2024-01-12T17:35:49.252Z,99463.42
2024-01-12T17:38:52.342Z,99469.87
2024-01-12T17:41:55.334Z,99459.20
2024-01-12T17:44:58.200Z,99455.58
2024-01-12T17:48:01.305Z,99452.92
2024-01-12T17:51:04.313Z,99441.79
2024-01-12T17:54:07.268Z,99429.05
2024-01-12T17:57:11.726Z,99429.80
2024-01-12T18:00:15.609Z,99419.25
2024-01-12T18:03:18.733Z,99420.71
2024-01-12T18:06:21.849Z,99421.25
2024-01-12T18:09:25.447Z,99422.74
2024-01-12T18:12:28.347Z,99418.40
2024-01-12T18:15:31.215Z,99418.70
2024-01-12T18:18:35.368Z,99406.77
2024-01-12T18:21:38.472Z,99406.88
2024-01-12T18:24:47.360Z,99411.14
2024-01-12T18:27:50.286Z,99406.02
2024-01-12T18:30:53.382Z,99404.88
2024-01-12T18:33:56.400Z,99403.50
2024-01-12T18:36:59.580Z,99394.94
2024-01-12T18:40:02.504Z,99394.89
2024-01-12T18:43:05.428Z,99385.06
2024-01-12T18:46:08.305Z,99387.17
2024-01-12T18:49:11.220Z,99386.02
2024-01-12T18:52:15.868Z,99403.54
2024-01-12T18:55:18.815Z,99409.45
2024-01-12T18:58:21.670Z,99406.39
2024-01-12T19:01:26.470Z,99401.52
2024-01-12T19:04:29.510Z,99399.67
2024-01-12T19:07:32.400Z,99390.19
2024-01-12T19:10:35.212Z,99385.69
2024-01-12T19:13:38.524Z,99377.73
2024-01-12T19:16:42.817Z,99370.92
2024-01-12T19:19:45.889Z,99372.53
2024-01-12T19:22:48.943Z,99369.77
2024-01-12T19:25:51.790Z,99362.21
2024-01-12T19:28:55.281Z,99367.55
2024-01-12T19:31:58.224Z,99370.44
2024-01-12T19:35:01.483Z,99363.06
2024-01-12T19:38:05.712Z,99358.13
2024-01-12T19:41:08.699Z,99347.30
2024-01-12T19:44:11.823Z,99352.64
2024-01-12T19:47:14.713Z,99353.95
2024-01-12T19:50:20.411Z,99355.08
2024-01-12T19:53:23.260Z,99353.42
2024-01-12T19:56:26.259Z,99352.68
2024-01-12T19:59:29.293Z,99350.66
2024-01-12T20:02:32.276Z,99355.04
2024-01-12T20:05:35.135Z,99358.73
2024-01-12T20:08:38.678Z,99358.86
2024-01-12T20:11:42.551Z,99359.56
2024-01-12T20:14:45.655Z,99362.31
2024-01-12T20:17:49.103Z,99365.92
2024-01-12T20:20:52.268Z,99367.63
2024-01-12T20:23:55.264Z,99372.16
2024-01-12T20:26:58.096Z,99366.54
2024-01-12T20:30:01.203Z,99365.77
2024-01-12T20:33:04.477Z,99366.61
2024-01-12T20:36:07.629Z,99364.21
2024-01-12T20:39:10.750Z,99362.94
2024-01-12T20:42:13.894Z,99356.58
2024-01-12T20:45:17.650Z,99356.05
2024-01-12T20:48:21.684Z,99361.95
2024-01-12T20:51:24.602Z,99368.95
2024-01-12T20:54:27.387Z,99367.94
2024-01-12T20:57:30.329Z,99360.89
2024-01-12T21:00:34.227Z,99360.04
2024-01-12T21:03:37.442Z,99354.65
2024-01-12T21:06:41.711Z,99360.65
2024-01-12T21:09:45.996Z,99353.45
2024-01-12T21:12:48.774Z,99346.42
2024-01-12T21:15:51.928Z,99347.38
2024-01-12T21:18:55.541Z,99345.40
2024-01-12T21:21:58.892Z,99345.27
2024-01-12T21:25:05.096Z,99344.73
2024-01-12T21:28:08.599Z,99341.09
2024-01-12T21:31:11.477Z,99339.45
2024-01-12T21:34:14.828Z,99338.23
2024-01-12T21:37:18.620Z,99337.73
2024-01-12T21:40:22.477Z,99342.14
2024-01-12T21:43:25.312Z,99338.30
2024-01-12T21:46:28.397Z,99332.27
2024-01-12T21:49:31.651Z,99331.18
2024-01-12T21:52:34.726Z,99332.91
2024-01-12T21:55:37.561Z,99326.77
2024-01-12T21:58:40.460Z,99322.73
2024-01-12T22:01:43.272Z,99325.52
2024-01-12T22:04:46.178Z,99323.81
2024-01-12T22:07:49.170Z,99322.75
2024-01-12T22:10:52.087Z,99318.10
2024-01-12T22:13:54.927Z,99315.02
2024-01-12T22:16:59.266Z,99308.42
2024-01-12T22:20:02.235Z,99306.30
2024-01-12T22:23:05.384Z,99316.81
2024-01-12T22:26:08.276Z,99311.69
2024-01-12T22:29:11.189Z,99306.94
2024-01-12T22:32:14.093Z,99301.65
2024-01-12T22:35:17.407Z,99300.46
2024-01-12T22:38:20.397Z,99297.80
2024-01-12T22:41:23.294Z,99297.14
2024-01-12T22:44:28.822Z,99301.00
2024-01-12T22:47:33.884Z,99303.27
2024-01-12T22:50:36.817Z,99306.94
2024-01-12T22:53:39.672Z,99311.43
2024-01-12T22:56:42.674Z,99311.56
2024-01-12T22:59:45.533Z,99313.06
2024-01-12T23:02:48.435Z,99320.30
2024-01-12T23:05:51.875Z,99311.70
2024-01-12T23:08:55.143Z,99307.85
2024-01-12T23:12:03.756Z,99297.06
2024-01-12T23:15:17.791Z,99289.21
2024-01-12T23:18:20.863Z,99286.70
2024-01-12T23:21:23.818Z,99282.27
2024-01-12T23:24:26.582Z,99284.41
2024-01-12T23:27:29.521Z,99284.35
2024-01-12T23:30:32.439Z,99281.34
2024-01-12T23:33:35.494Z,99279.91
2024-01-12T23:36:38.542Z,99277.14
2024-01-12T23:39:41.403Z,99272.55
2024-01-12T23:42:44.306Z,99272.85
2024-01-12T23:45:47.277Z,99269.54
2024-01-12T23:48:50.290Z,99270.62
2024-01-12T23:51:53.178Z,99270.42
2024-01-12T23:54:55.994Z,99268.88
2024-01-12T23:57:58.840Z,99261.89
